Algoway — VDFP — position and weather

sailwx.info

Track history (hours):
 
Tides and Currents Weather Stations Pressure Air Temp Water Temp Dewpoint Dewpoint Depression Visibility Wind Speed Wind Dir Waves Ship Positions

Algoway

Last reported at 2017-Dec-19 10:23 UTC. Time now 2018-Jun-19 04:17 UTC.
Position N 45°51' W 084°27'.
Warning: this ship's position is months out of date.

Length 197 m; draft 7.4 m.

Type: Cargo ship. MMSI: 316001797.

Date/timePositionNaut miles runAvg speedWind from/ knotsBaromVisibWave heightAir tempDewpointWater temp
2017-Dec-19 10:23N 45°51' W 084°27'711.9
2017-Dec-19 09:47N 45°50' W 084°38'412.7
2017-Dec-19 09:30N 45°49' W 084°42'713.6
2017-Dec-19 09:00N 45°50' W 084°52'713.3
2017-Dec-19 08:30N 45°51' W 085°01'713.1
2017-Dec-19 08:00N 45°52' W 085°11'713.2
2017-Dec-19 07:30N 45°53' W 085°20'713.2
2017-Dec-19 07:00N 45°53' W 085°30'712.8
2017-Dec-19 06:28N 45°51' W 085°39'613.2
2017-Dec-19 06:00N 45°48' W 085°47'613.2
2017-Dec-19 05:30N 45°45' W 085°54'1 0.0
2017-Dec-17 14:12N 45°45' W 085°56'311.0
2017-Dec-17 13:55N 45°47' W 085°52'410.9
2017-Dec-17 13:30N 45°49' W 085°46'510.8
2017-Dec-17 13:00N 45°51' W 085°40'510.7
2017-Dec-17 12:30N 45°54' W 085°33'610.7
2017-Dec-17 11:57N 45°54' W 085°24'511.1
2017-Dec-17 11:30N 45°53' W 085°17'511.1
2017-Dec-17 11:00N 45°52' W 085°09'611.3
2017-Dec-17 10:30N 45°51' W 085°01'611.2
2017-Dec-17 10:00N 45°50' W 084°53'611.4
2017-Dec-17 09:30N 45°49' W 084°45'510.4
2017-Dec-17 09:00N 45°50' W 084°38'5 9.5
2017-Dec-17 08:30N 45°51' W 084°31'510.7
2017-Dec-17 08:00N 45°52' W 084°24'611.0
2017-Dec-17 07:29N 45°50' W 084°16'1811.0
2017-Dec-17 05:53N 45°43' W 083°52'411.1
2017-Dec-17 05:30N 45°42' W 083°47'511.0
2017-Dec-17 05:00N 45°39' W 083°40'611.0
2017-Dec-17 04:30N 45°37' W 083°33'611.0
2017-Dec-17 04:00N 45°34' W 083°26'  
2017-Dec-13 04:27N 45°24' W 083°25'510.9
2017-Dec-13 04:00N 45°28' W 083°29'510.8
2017-Dec-13 03:30N 45°33' W 083°33'510.7
2017-Dec-13 03:00N 45°37' W 083°37'510.7
2017-Dec-13 02:30N 45°42' W 083°41'510.7
2017-Dec-13 02:00N 45°47' W 083°45'  
Track history (hours):
 
Tides and Currents Weather Stations Pressure Air Temp Water Temp Dewpoint Dewpoint Depression Visibility Wind Speed Wind Dir Waves Ship Positions

Algoway

Last reported at 2017-Dec-19 10:23 UTC. Time now 2018-Jun-19 04:17 UTC.
Position N 45°51' W 084°27'.
Warning: this ship's position is months out of date.

Length 197 m; draft 7.4 m.

Type: Cargo ship. MMSI: 316001797.

Date/timePositionNaut miles runAvg speedWind from/ knotsBaromVisibWave heightAir tempDewpointWater temp
2017-Dec-19 10:23N 45°51' W 084°27'711.9
2017-Dec-19 09:47N 45°50' W 084°38'412.7
2017-Dec-19 09:30N 45°49' W 084°42'713.6
2017-Dec-19 09:00N 45°50' W 084°52'713.3
2017-Dec-19 08:30N 45°51' W 085°01'713.1
2017-Dec-19 08:00N 45°52' W 085°11'713.2
2017-Dec-19 07:30N 45°53' W 085°20'713.2
2017-Dec-19 07:00N 45°53' W 085°30'712.8
2017-Dec-19 06:28N 45°51' W 085°39'613.2
2017-Dec-19 06:00N 45°48' W 085°47'613.2
2017-Dec-19 05:30N 45°45' W 085°54'1 0.0
2017-Dec-17 14:12N 45°45' W 085°56'311.0
2017-Dec-17 13:55N 45°47' W 085°52'410.9
2017-Dec-17 13:30N 45°49' W 085°46'510.8
2017-Dec-17 13:00N 45°51' W 085°40'510.7
2017-Dec-17 12:30N 45°54' W 085°33'610.7
2017-Dec-17 11:57N 45°54' W 085°24'511.1
2017-Dec-17 11:30N 45°53' W 085°17'511.1
2017-Dec-17 11:00N 45°52' W 085°09'611.3
2017-Dec-17 10:30N 45°51' W 085°01'611.2
2017-Dec-17 10:00N 45°50' W 084°53'611.4
2017-Dec-17 09:30N 45°49' W 084°45'510.4
2017-Dec-17 09:00N 45°50' W 084°38'5 9.5
2017-Dec-17 08:30N 45°51' W 084°31'510.7
2017-Dec-17 08:00N 45°52' W 084°24'611.0
2017-Dec-17 07:29N 45°50' W 084°16'1811.0
2017-Dec-17 05:53N 45°43' W 083°52'411.1
2017-Dec-17 05:30N 45°42' W 083°47'511.0
2017-Dec-17 05:00N 45°39' W 083°40'611.0
2017-Dec-17 04:30N 45°37' W 083°33'611.0
2017-Dec-17 04:00N 45°34' W 083°26'  
2017-Dec-13 04:27N 45°24' W 083°25'510.9
2017-Dec-13 04:00N 45°28' W 083°29'510.8
2017-Dec-13 03:30N 45°33' W 083°33'510.7
2017-Dec-13 03:00N 45°37' W 083°37'510.7
2017-Dec-13 02:30N 45°42' W 083°41'510.7
2017-Dec-13 02:00N 45°47' W 083°45'  

Dump ship's entire track history